Boynton Beach, FL (33436)

10:21 AM EST on February 27, 2015 (GMT -0500)
Richie's Weather Station | Change Station
CLOSE
Current Station
Personal Weather Station
Location: Boynton Beach, FL
Elevation: 19 ft
Nearby Weather Stations

Elev 19 ft 26.52 °N, 80.14 °W | Updated 6 seconds ago

Overcast
Overcast
64.8 °F
Feels Like 64.8 °F
N
6.9
Wind Variable Wind from North
Gusts 6.9 mph

Today
High -- | Low -- °F
--% Chance of Precip.
Yesterday
High -- | Low -- °F
Precip. -- in
6:46 AM 6:20 PM
Waxing Gibbous, 69% visible
Pressure 30.13 in
Visibility 7.0 miles
Clouds Overcast 700 ft
Dew Point 60 °F
Humidity 84%
Rainfall 0.30 in
Snow Depth Not available.
UV 2 out of 12
Pollen 9.30 out of 12
Air Quality Not available.
Flu Activity Not available.
METAR KPBI 271453Z 35008KT 7SM OVC007 18/17 A3013 RMK AO2 RAB32E41 SLP203 P0000 60004 T01830172 53028

More Conditions Fewer Conditions

Pressure 30.13 in
Visibility 7.0 miles
Clouds Overcast 700 ft
Dew Point 60 °F
Humidity 84%
Rainfall 0.30 in
Snow Depth Not available.
UV 2 out of 12
Pollen 9.30 out of 12
Air Quality Not available.
Flu Activity Not available.
METAR KPBI 271453Z 35008KT 7SM OVC007 18/17 A3013 RMK AO2 RAB32E41 SLP203 P0000 60004 T01830172 53028

More Conditions Fewer Conditions

10-Day Weather Forecast

Almanac

Astronomy

Feb. 27, 2015 Rise Set
Actual Time
Civil Twilight
Nautical Twilight
Astronomical Twilight
Moon
Length of Visible Light
Length of Day
Tomorrow will be .
, % of the Moon is Illuminated

Today's Extremes

State Highs State Lows

Community

WunderPhotos

Upload Photos

1,800,694 photos uploaded!

WunderBlogs® & News

Nearby

Air Quality

  Air Quality AQ Index Pollutant
Not available.

Snow Depth

Station Depth Elevation

Earthquake Activity

City Distance Mag. Time & Date
Minimum magnitude displayed is 2.5.

Coastal Water Temperatures

Place Temperature

Nearby Weather Stations